sensor_id;sensor_type;location;lat;lon;timestamp;pressure;altitude;pressure_sealevel;temperature;humidity
45285;BME280;31026;43.780;25.948;2022-11-14T00:01:53;102134.06;;;18.55;70.16
45285;BME280;31026;43.780;25.948;2022-11-14T00:04:21;102140.28;;;18.55;69.68
45285;BME280;31026;43.780;25.948;2022-11-14T00:06:49;102145.63;;;18.55;69.88
45285;BME280;31026;43.780;25.948;2022-11-14T00:09:18;102141.03;;;18.57;70.14
45285;BME280;31026;43.780;25.948;2022-11-14T00:11:49;102137.50;;;18.57;69.80
45285;BME280;31026;43.780;25.948;2022-11-14T00:14:17;102136.66;;;18.56;69.91
45285;BME280;31026;43.780;25.948;2022-11-14T00:16:45;102149.38;;;18.53;70.11
45285;BME280;31026;43.780;25.948;2022-11-14T00:19:14;102141.22;;;18.54;70.17
45285;BME280;31026;43.780;25.948;2022-11-14T00:21:42;102128.03;;;18.51;69.95
45285;BME280;31026;43.780;25.948;2022-11-14T00:24:10;102146.59;;;18.54;69.78
45285;BME280;31026;43.780;25.948;2022-11-14T00:26:39;102129.97;;;18.49;69.88
45285;BME280;31026;43.780;25.948;2022-11-14T00:29:12;102152.72;;;18.56;69.94
45285;BME280;31026;43.780;25.948;2022-11-14T00:31:40;102134.47;;;18.48;69.56
45285;BME280;31026;43.780;25.948;2022-11-14T00:34:08;102154.63;;;18.54;69.47
45285;BME280;31026;43.780;25.948;2022-11-14T00:36:37;102128.91;;;18.52;69.86
45285;BME280;31026;43.780;25.948;2022-11-14T00:39:05;102140.28;;;18.55;69.63
45285;BME280;31026;43.780;25.948;2022-11-14T00:41:33;102143.16;;;18.52;69.79
45285;BME280;31026;43.780;25.948;2022-11-14T00:44:02;102144.78;;;18.55;70.05
45285;BME280;31026;43.780;25.948;2022-11-14T00:46:32;102139.81;;;18.48;70.02
45285;BME280;31026;43.780;25.948;2022-11-14T00:49:01;102126.53;;;18.47;69.57
45285;BME280;31026;43.780;25.948;2022-11-14T00:51:29;102118.59;;;18.45;69.75
45285;BME280;31026;43.780;25.948;2022-11-14T00:53:57;102126.53;;;18.47;69.80
45285;BME280;31026;43.780;25.948;2022-11-14T00:56:25;102126.53;;;18.47;69.55
45285;BME280;31026;43.780;25.948;2022-11-14T00:58:54;102144.13;;;18.51;69.15
45285;BME280;31026;43.780;25.948;2022-11-14T01:01:22;102135.09;;;18.52;69.26
45285;BME280;31026;43.780;25.948;2022-11-14T01:03:53;102142.28;;;18.52;69.72
45285;BME280;31026;43.780;25.948;2022-11-14T01:06:21;102120.19;;;18.48;69.68
45285;BME280;31026;43.780;25.948;2022-11-14T01:08:50;102127.47;;;18.46;69.85
45285;BME280;31026;43.780;25.948;2022-11-14T01:11:19;102128.13;;;18.49;69.88
45285;BME280;31026;43.780;25.948;2022-11-14T01:13:47;102126.53;;;18.47;69.78
45285;BME280;31026;43.780;25.948;2022-11-14T01:16:16;102123.00;;;18.46;69.44
45285;BME280;31026;43.780;25.948;2022-11-14T01:18:44;102120.50;;;18.43;69.52
45285;BME280;31026;43.780;25.948;2022-11-14T01:21:15;102110.53;;;18.45;68.99
45285;BME280;31026;43.780;25.948;2022-11-14T01:23:44;102116.00;;;18.44;69.78
45285;BME280;31026;43.780;25.948;2022-11-14T01:26:12;102125.00;;;18.43;69.74
45285;BME280;31026;43.780;25.948;2022-11-14T01:28:41;102121.34;;;18.44;69.39
45285;BME280;31026;43.780;25.948;2022-11-14T01:31:10;102117.81;;;18.43;69.22
45285;BME280;31026;43.780;25.948;2022-11-14T01:33:38;102108.72;;;18.46;69.62
45285;BME280;31026;43.780;25.948;2022-11-14T01:36:07;102107.97;;;18.44;69.36
45285;BME280;31026;43.780;25.948;2022-11-14T01:38:38;102107.19;;;18.42;69.60
45285;BME280;31026;43.780;25.948;2022-11-14T01:41:07;102108.94;;;18.43;69.61
45285;BME280;31026;43.780;25.948;2022-11-14T01:43:36;102100.13;;;18.41;69.57
45285;BME280;31026;43.780;25.948;2022-11-14T01:46:06;102112.56;;;18.42;69.67
45285;BME280;31026;43.780;25.948;2022-11-14T01:48:36;102111.63;;;18.43;69.23
45285;BME280;31026;43.780;25.948;2022-11-14T01:51:12;102098.13;;;18.44;69.35
45285;BME280;31026;43.780;25.948;2022-11-14T01:53:46;102107.88;;;18.45;69.36
45285;BME280;31026;43.780;25.948;2022-11-14T01:56:16;102114.28;;;18.43;69.34
45285;BME280;31026;43.780;25.948;2022-11-14T01:58:46;102103.56;;;18.43;69.39
45285;BME280;31026;43.780;25.948;2022-11-14T02:01:16;102104.25;;;18.46;69.24
45285;BME280;31026;43.780;25.948;2022-11-14T02:03:44;102107.44;;;19.20;67.55
45285;BME280;31026;43.780;25.948;2022-11-14T02:06:14;102092.41;;;20.20;64.70
45285;BME280;31026;43.780;25.948;2022-11-14T02:08:48;102089.06;;;20.66;63.34
45285;BME280;31026;43.780;25.948;2022-11-14T02:11:18;102085.34;;;21.16;62.11
45285;BME280;31026;43.780;25.948;2022-11-14T02:13:47;102083.19;;;20.61;63.38
45285;BME280;31026;43.780;25.948;2022-11-14T02:16:15;102089.31;;;20.01;65.12
45285;BME280;31026;43.780;25.948;2022-11-14T02:18:43;102086.22;;;20.44;64.23
45285;BME280;31026;43.780;25.948;2022-11-14T02:21:14;102082.00;;;20.77;63.33
45285;BME280;31026;43.780;25.948;2022-11-14T02:23:43;102098.31;;;20.86;63.07
45285;BME280;31026;43.780;25.948;2022-11-14T02:26:11;102090.22;;;21.11;62.55
45285;BME280;31026;43.780;25.948;2022-11-14T02:28:39;102093.78;;;21.22;62.18
45285;BME280;31026;43.780;25.948;2022-11-14T02:31:07;102089.25;;;21.12;62.55
45285;BME280;31026;43.780;25.948;2022-11-14T02:33:36;102084.63;;;21.14;62.36
45285;BME280;31026;43.780;25.948;2022-11-14T02:36:04;102086.56;;;21.12;62.27
45285;BME280;31026;43.780;25.948;2022-11-14T02:38:35;102105.03;;;21.16;62.14
45285;BME280;31026;43.780;25.948;2022-11-14T02:41:04;102090.00;;;21.14;62.33
45285;BME280;31026;43.780;25.948;2022-11-14T02:43:32;102089.00;;;21.15;62.52
45285;BME280;31026;43.780;25.948;2022-11-14T02:46:01;102078.75;;;21.20;61.92
45285;BME280;31026;43.780;25.948;2022-11-14T02:48:29;102085.88;;;21.21;62.27
45285;BME280;31026;43.780;25.948;2022-11-14T02:50:57;102089.03;;;21.26;62.22
45285;BME280;31026;43.780;25.948;2022-11-14T02:53:25;102080.00;;;21.27;62.11
45285;BME280;31026;43.780;25.948;2022-11-14T02:55:56;102075.22;;;21.31;61.88
45285;BME280;31026;43.780;25.948;2022-11-14T02:58:25;102083.44;;;21.29;62.11
45285;BME280;31026;43.780;25.948;2022-11-14T03:00:53;102078.53;;;21.34;61.93
45285;BME280;31026;43.780;25.948;2022-11-14T03:03:22;102073.66;;;21.39;61.98
45285;BME280;31026;43.780;25.948;2022-11-14T03:05:51;102085.53;;;21.37;61.94
45285;BME280;31026;43.780;25.948;2022-11-14T03:08:19;102082.47;;;21.41;61.88
45285;BME280;31026;43.780;25.948;2022-11-14T03:10:47;102090.47;;;21.43;61.91
45285;BME280;31026;43.780;25.948;2022-11-14T03:13:18;102080.59;;;21.55;61.55
45285;BME280;31026;43.780;25.948;2022-11-14T03:15:46;102083.28;;;21.55;61.68
45285;BME280;31026;43.780;25.948;2022-11-14T03:18:15;102080.81;;;21.52;61.45
45285;BME280;31026;43.780;25.948;2022-11-14T03:20:43;102093.16;;;21.54;61.71
45285;BME280;31026;43.780;25.948;2022-11-14T03:23:12;102086.97;;;21.65;61.22
45285;BME280;31026;43.780;25.948;2022-11-14T03:25:41;102088.41;;;21.58;61.42
45285;BME280;31026;43.780;25.948;2022-11-14T03:28:09;102081.56;;;21.54;61.77
45285;BME280;31026;43.780;25.948;2022-11-14T03:30:41;102086.22;;;21.63;61.51
45285;BME280;31026;43.780;25.948;2022-11-14T03:33:09;102082.66;;;21.62;61.52
45285;BME280;31026;43.780;25.948;2022-11-14T03:35:40;102084.97;;;21.56;61.60
45285;BME280;31026;43.780;25.948;2022-11-14T03:38:09;102090.38;;;21.56;61.88
45285;BME280;31026;43.780;25.948;2022-11-14T03:40:38;102082.06;;;21.59;61.79
45285;BME280;31026;43.780;25.948;2022-11-14T03:43:06;102090.28;;;21.69;61.79
45285;BME280;31026;43.780;25.948;2022-11-14T03:45:35;102083.03;;;21.69;61.44
45285;BME280;31026;43.780;25.948;2022-11-14T03:48:06;102089.78;;;21.75;61.39
45285;BME280;31026;43.780;25.948;2022-11-14T03:50:35;102080.84;;;21.63;61.75
45285;BME280;31026;43.780;25.948;2022-11-14T03:53:03;102090.38;;;21.67;61.60
45285;BME280;31026;43.780;25.948;2022-11-14T03:55:31;102084.41;;;21.75;61.56
45285;BME280;31026;43.780;25.948;2022-11-14T03:58:00;102082.06;;;21.70;61.57
45285;BME280;31026;43.780;25.948;2022-11-14T04:00:28;102069.81;;;21.66;61.90
45285;BME280;31026;43.780;25.948;2022-11-14T04:02:56;102067.38;;;21.74;61.49
45285;BME280;31026;43.780;25.948;2022-11-14T04:05:28;102080.81;;;21.74;61.79
45285;BME280;31026;43.780;25.948;2022-11-14T04:07:57;102070.69;;;21.89;61.34
45285;BME280;31026;43.780;25.948;2022-11-14T04:10:25;102079.13;;;21.84;61.67
45285;BME280;31026;43.780;25.948;2022-11-14T04:12:53;102071.53;;;21.90;61.20
45285;BME280;31026;43.780;25.948;2022-11-14T04:15:21;102076.31;;;21.75;61.75
45285;BME280;31026;43.780;25.948;2022-11-14T04:17:50;102076.69;;;21.81;61.73
45285;BME280;31026;43.780;25.948;2022-11-14T04:20:18;102079.84;;;21.75;61.89
45285;BME280;31026;43.780;25.948;2022-11-14T04:22:49;102064.78;;;21.84;61.41
45285;BME280;31026;43.780;25.948;2022-11-14T04:25:17;102075.69;;;21.94;61.34
45285;BME280;31026;43.780;25.948;2022-11-14T04:27:46;102070.91;;;21.86;61.57
45285;BME280;31026;43.780;25.948;2022-11-14T04:30:15;102069.34;;;21.95;61.55
45285;BME280;31026;43.780;25.948;2022-11-14T04:32:43;102082.56;;;21.87;61.83
45285;BME280;31026;43.780;25.948;2022-11-14T04:35:13;102075.69;;;21.82;62.00
45285;BME280;31026;43.780;25.948;2022-11-14T04:37:42;102085.72;;;21.92;61.56
45285;BME280;31026;43.780;25.948;2022-11-14T04:40:13;102090.28;;;21.91;61.57
45285;BME280;31026;43.780;25.948;2022-11-14T04:42:41;102082.81;;;21.95;61.35
45285;BME280;31026;43.780;25.948;2022-11-14T04:45:10;102081.06;;;21.94;61.37
45285;BME280;31026;43.780;25.948;2022-11-14T04:47:40;102089.16;;;21.94;61.72
45285;BME280;31026;43.780;25.948;2022-11-14T04:50:08;102084.88;;;22.02;61.44
45285;BME280;31026;43.780;25.948;2022-11-14T04:52:37;102101.41;;;21.98;61.61
45285;BME280;31026;43.780;25.948;2022-11-14T04:55:05;102106.28;;;22.04;61.44
45285;BME280;31026;43.780;25.948;2022-11-14T04:57:36;102099.44;;;22.00;61.60
45285;BME280;31026;43.780;25.948;2022-11-14T05:00:05;102099.44;;;22.00;61.46
45285;BME280;31026;43.780;25.948;2022-11-14T05:02:34;102094.44;;;21.95;61.53
45285;BME280;31026;43.780;25.948;2022-11-14T05:05:02;102090.88;;;21.95;61.78
45285;BME280;31026;43.780;25.948;2022-11-14T05:07:30;102098.34;;;22.02;61.29
45285;BME280;31026;43.780;25.948;2022-11-14T05:09:59;102105.56;;;22.02;61.66
45285;BME280;31026;43.780;25.948;2022-11-14T05:12:27;102109.38;;;21.99;61.68
45285;BME280;31026;43.780;25.948;2022-11-14T05:14:58;102120.97;;;22.00;61.55
45285;BME280;31026;43.780;25.948;2022-11-14T05:17:26;102109.88;;;22.04;61.66
45285;BME280;31026;43.780;25.948;2022-11-14T05:19:56;102119.66;;;22.05;61.60
45285;BME280;31026;43.780;25.948;2022-11-14T05:22:24;102122.69;;;22.12;61.39
45285;BME280;31026;43.780;25.948;2022-11-14T05:24:52;102132.00;;;22.08;61.67
45285;BME280;31026;43.780;25.948;2022-11-14T05:27:20;102119.41;;;22.09;61.33
45285;BME280;31026;43.780;25.948;2022-11-14T05:29:50;102121.50;;;22.05;61.45
45285;BME280;31026;43.780;25.948;2022-11-14T05:32:22;102117.91;;;22.16;61.07
45285;BME280;31026;43.780;25.948;2022-11-14T05:34:50;102119.03;;;22.13;61.22
45285;BME280;31026;43.780;25.948;2022-11-14T05:37:18;102110.44;;;22.19;61.03
45285;BME280;31026;43.780;25.948;2022-11-14T05:39:46;102128.69;;;22.16;61.11
45285;BME280;31026;43.780;25.948;2022-11-14T05:42:15;102120.38;;;22.19;61.20
45285;BME280;31026;43.780;25.948;2022-11-14T05:44:43;102139.84;;;22.11;61.51
45285;BME280;31026;43.780;25.948;2022-11-14T05:47:12;102137.38;;;22.08;61.54
45285;BME280;31026;43.780;25.948;2022-11-14T05:49:43;102121.72;;;22.13;61.50
45285;BME280;31026;43.780;25.948;2022-11-14T05:52:11;102132.00;;;22.19;61.32
45285;BME280;31026;43.780;25.948;2022-11-14T05:54:39;102132.13;;;22.18;61.08
45285;BME280;31026;43.780;25.948;2022-11-14T05:57:08;102145.25;;;22.22;61.36
45285;BME280;31026;43.780;25.948;2022-11-14T05:59:36;102140.34;;;22.16;61.24
45285;BME280;31026;43.780;25.948;2022-11-14T06:02:04;102132.28;;;22.16;61.53
45285;BME280;31026;43.780;25.948;2022-11-14T06:04:33;102146.72;;;22.15;61.36
45285;BME280;31026;43.780;25.948;2022-11-14T06:24:16;102141.91;;;20.42;65.67
45285;BME280;31026;43.780;25.948;2022-11-14T06:26:45;102156.47;;;20.51;66.27
45285;BME280;31026;43.780;25.948;2022-11-14T06:29:13;102140.91;;;20.43;65.90
45285;BME280;31026;43.780;25.948;2022-11-14T06:31:41;102163.19;;;20.32;66.40
45285;BME280;31026;43.780;25.948;2022-11-14T06:34:10;102165.97;;;20.31;66.55
45285;BME280;31026;43.780;25.948;2022-11-14T07:31:07;102152.19;;;19.45;70.39
45285;BME280;31026;43.780;25.948;2022-11-14T07:33:36;102151.03;;;19.50;69.69
45285;BME280;31026;43.780;25.948;2022-11-14T07:36:05;102157.47;;;19.47;68.60
45285;BME280;31026;43.780;25.948;2022-11-14T07:38:34;102155.63;;;19.47;70.29
45285;BME280;31026;43.780;25.948;2022-11-14T07:41:04;102164.25;;;19.53;70.32
45285;BME280;31026;43.780;25.948;2022-11-14T07:43:32;102144.75;;;19.76;70.43
45285;BME280;31026;43.780;25.948;2022-11-14T07:46:01;102129.72;;;20.49;67.64
45285;BME280;31026;43.780;25.948;2022-11-14T07:48:32;102132.13;;;20.78;65.77
45285;BME280;31026;43.780;25.948;2022-11-14T07:51:01;102121.03;;;20.82;64.58
45285;BME280;31026;43.780;25.948;2022-11-14T07:53:30;102131.47;;;20.87;64.29
45285;BME280;31026;43.780;25.948;2022-11-14T07:56:01;102141.00;;;20.91;64.78
45285;BME280;31026;43.780;25.948;2022-11-14T07:58:29;102137.22;;;20.94;64.78
45285;BME280;31026;43.780;25.948;2022-11-14T08:00:59;102136.19;;;21.08;64.59
45285;BME280;31026;43.780;25.948;2022-11-14T08:03:27;102136.25;;;21.19;64.42
45285;BME280;31026;43.780;25.948;2022-11-14T08:06:02;102133.09;;;21.25;64.02
45285;BME280;31026;43.780;25.948;2022-11-14T08:08:31;102141.63;;;21.30;63.95
45285;BME280;31026;43.780;25.948;2022-11-14T08:11:00;102147.38;;;21.25;64.51
45285;BME280;31026;43.780;25.948;2022-11-14T08:13:29;102140.28;;;21.24;64.53
45285;BME280;31026;43.780;25.948;2022-11-14T08:15:57;102146.38;;;21.26;64.50
45285;BME280;31026;43.780;25.948;2022-11-14T08:18:27;102154.72;;;21.23;64.64
45285;BME280;31026;43.780;25.948;2022-11-14T08:20:55;102150.81;;;21.28;64.16
45285;BME280;31026;43.780;25.948;2022-11-14T08:23:26;102151.16;;;21.23;64.54
45285;BME280;31026;43.780;25.948;2022-11-14T08:25:56;102150.19;;;21.24;64.78
45285;BME280;31026;43.780;25.948;2022-11-14T08:28:25;102146.38;;;21.26;64.78
45285;BME280;31026;43.780;25.948;2022-11-14T08:30:57;102151.78;;;21.26;64.75
45285;BME280;31026;43.780;25.948;2022-11-14T08:33:25;102160.00;;;21.25;64.53
45285;BME280;31026;43.780;25.948;2022-11-14T08:35:53;102138.00;;;21.31;64.47
45285;BME280;31026;43.780;25.948;2022-11-14T08:38:22;102145.91;;;21.33;64.58
45285;BME280;31026;43.780;25.948;2022-11-14T08:40:56;102144.34;;;21.30;64.43
45285;BME280;31026;43.780;25.948;2022-11-14T08:43:24;102140.44;;;21.34;64.52
45285;BME280;31026;43.780;25.948;2022-11-14T08:45:55;102148.50;;;21.34;64.43
45285;BME280;31026;43.780;25.948;2022-11-14T08:48:24;102145.81;;;21.34;64.52
45285;BME280;31026;43.780;25.948;2022-11-14T08:50:52;102139.47;;;21.35;64.29
45285;BME280;31026;43.780;25.948;2022-11-14T08:53:20;102135.44;;;21.41;64.23
45285;BME280;31026;43.780;25.948;2022-11-14T08:55:49;102125.66;;;21.40;65.01
45285;BME280;31026;43.780;25.948;2022-11-14T08:58:20;102128.22;;;21.41;64.87
45285;BME280;31026;43.780;25.948;2022-11-14T09:00:48;102126.63;;;21.39;64.94
45285;BME280;31026;43.780;25.948;2022-11-14T09:03:16;102129.00;;;21.43;64.72
45285;BME280;31026;43.780;25.948;2022-11-14T09:05:50;102114.56;;;21.44;64.56
45285;BME280;31026;43.780;25.948;2022-11-14T09:08:18;102116.91;;;21.49;64.82
45285;BME280;31026;43.780;25.948;2022-11-14T09:10:46;102111.53;;;21.49;64.95
45285;BME280;31026;43.780;25.948;2022-11-14T09:13:15;102114.09;;;21.51;64.79
45285;BME280;31026;43.780;25.948;2022-11-14T09:15:46;102122.63;;;21.44;64.66
45285;BME280;31026;43.780;25.948;2022-11-14T09:18:14;102103.78;;;21.44;64.92
45285;BME280;31026;43.780;25.948;2022-11-14T09:20:43;102115.75;;;21.40;64.88
45285;BME280;31026;43.780;25.948;2022-11-14T09:23:11;102109.50;;;21.40;64.99
45285;BME280;31026;43.780;25.948;2022-11-14T09:25:39;102118.13;;;21.45;65.04
45285;BME280;31026;43.780;25.948;2022-11-14T09:28:08;102100.75;;;21.49;65.03
45285;BME280;31026;43.780;25.948;2022-11-14T09:30:36;102101.25;;;21.54;64.64
45285;BME280;31026;43.780;25.948;2022-11-14T09:33:08;102085.59;;;21.59;64.73
45285;BME280;31026;43.780;25.948;2022-11-14T09:35:38;102074.94;;;21.58;64.82
45285;BME280;31026;43.780;25.948;2022-11-14T09:38:07;102075.94;;;21.57;64.80
45285;BME280;31026;43.780;25.948;2022-11-14T09:40:41;102078.75;;;21.55;65.26
45285;BME280;31026;43.780;25.948;2022-11-14T09:43:24;102067.13;;;21.55;65.02
45285;BME280;31026;43.780;25.948;2022-11-14T09:45:59;102075.94;;;21.57;64.84
45285;BME280;31026;43.780;25.948;2022-11-14T09:48:30;102064.56;;;21.53;65.15
45285;BME280;31026;43.780;25.948;2022-11-14T09:51:03;102068.22;;;21.52;64.96
45285;BME280;31026;43.780;25.948;2022-11-14T09:53:35;102067.59;;;21.60;64.60
45285;BME280;31026;43.780;25.948;2022-11-14T09:56:08;102059.41;;;21.61;65.13
45285;BME280;31026;43.780;25.948;2022-11-14T09:58:39;102054.13;;;21.49;64.87
45285;BME280;31026;43.780;25.948;2022-11-14T10:01:09;102057.59;;;21.51;65.22
45285;BME280;31026;43.780;25.948;2022-11-14T10:03:46;102056.81;;;21.49;65.25
45285;BME280;31026;43.780;25.948;2022-11-14T10:06:22;102052.88;;;21.41;64.93
45285;BME280;31026;43.780;25.948;2022-11-14T10:09:14;102060.03;;;21.54;65.10
45285;BME280;31026;43.780;25.948;2022-11-14T10:11:50;102053.16;;;21.50;65.16
45285;BME280;31026;43.780;25.948;2022-11-14T10:17:06;102043.25;;;21.50;64.92
45285;BME280;31026;43.780;25.948;2022-11-14T10:19:43;102057.31;;;21.54;64.87
45285;BME280;31026;43.780;25.948;2022-11-14T10:22:17;102045.72;;;21.53;64.97
45285;BME280;31026;43.780;25.948;2022-11-14T10:24:50;102053.28;;;21.59;64.92
45285;BME280;31026;43.780;25.948;2022-11-14T10:27:24;102034.56;;;21.58;65.02
45285;BME280;31026;43.780;25.948;2022-11-14T10:30:04;102028.56;;;21.54;65.05
45285;BME280;31026;43.780;25.948;2022-11-14T10:32:40;102025.88;;;21.54;65.45
45285;BME280;31026;43.780;25.948;2022-11-14T10:35:15;102033.69;;;21.46;64.83
45285;BME280;31026;43.780;25.948;2022-11-14T10:37:47;102027.19;;;21.37;64.44
45285;BME280;31026;43.780;25.948;2022-11-14T10:40:20;102012.59;;;21.29;65.07
45285;BME280;31026;43.780;25.948;2022-11-14T10:42:50;102035.81;;;20.72;66.90
45285;BME280;31026;43.780;25.948;2022-11-14T10:45:23;102025.16;;;20.46;67.84
45285;BME280;31026;43.780;25.948;2022-11-14T10:47:54;102027.59;;;20.25;68.69
45285;BME280;31026;43.780;25.948;2022-11-14T10:50:28;102017.41;;;20.17;68.83
45285;BME280;31026;43.780;25.948;2022-11-14T10:53:00;102016.63;;;20.04;68.97
45285;BME280;31026;43.780;25.948;2022-11-14T10:55:32;102021.75;;;20.07;68.79
45285;BME280;31026;43.780;25.948;2022-11-14T10:58:00;102038.31;;;20.01;69.22
45285;BME280;31026;43.780;25.948;2022-11-14T11:00:28;102020.59;;;19.98;69.36
45285;BME280;31026;43.780;25.948;2022-11-14T11:02:57;102017.28;;;19.95;69.43
45285;BME280;31026;43.780;25.948;2022-11-14T11:05:29;102030.94;;;19.92;69.17
45285;BME280;31026;43.780;25.948;2022-11-14T11:07:58;102024.94;;;19.88;69.00
45285;BME280;31026;43.780;25.948;2022-11-14T11:10:40;102026.44;;;19.79;69.48
45285;BME280;31026;43.780;25.948;2022-11-14T11:13:29;102015.19;;;19.74;69.66
45285;BME280;31026;43.780;25.948;2022-11-14T11:15:58;102017.88;;;19.74;69.68
45285;BME280;31026;43.780;25.948;2022-11-14T11:18:28;102003.47;;;19.75;69.37
45285;BME280;31026;43.780;25.948;2022-11-14T11:21:06;101995.94;;;19.67;69.56
45285;BME280;31026;43.780;25.948;2022-11-14T11:23:35;102004.13;;;19.66;69.64
45285;BME280;31026;43.780;25.948;2022-11-14T11:26:05;102000.69;;;19.64;69.42
45285;BME280;31026;43.780;25.948;2022-11-14T11:28:34;101990.25;;;19.59;69.64
45285;BME280;31026;43.780;25.948;2022-11-14T11:31:03;101994.66;;;19.60;69.62
45285;BME280;31026;43.780;25.948;2022-11-14T11:33:32;101989.75;;;19.54;69.76
45285;BME280;31026;43.780;25.948;2022-11-14T11:36:01;101983.53;;;19.54;69.76
45285;BME280;31026;43.780;25.948;2022-11-14T11:38:33;101970.84;;;19.56;70.00
45285;BME280;31026;43.780;25.948;2022-11-14T11:41:06;101982.75;;;19.52;69.73
45285;BME280;31026;43.780;25.948;2022-11-14T11:43:41;101993.63;;;19.50;69.97
45285;BME280;31026;43.780;25.948;2022-11-14T11:46:12;101988.44;;;19.47;69.85
45285;BME280;31026;43.780;25.948;2022-11-14T11:48:42;101969.56;;;19.48;69.38
45285;BME280;31026;43.780;25.948;2022-11-14T11:51:15;101987.38;;;19.50;69.64
45285;BME280;31026;43.780;25.948;2022-11-14T11:53:49;101989.31;;;19.47;69.65
45285;BME280;31026;43.780;25.948;2022-11-14T11:56:24;101976.97;;;19.45;69.64
45285;BME280;31026;43.780;25.948;2022-11-14T11:58:54;101971.19;;;19.38;69.79
45285;BME280;31026;43.780;25.948;2022-11-14T12:01:24;101972.69;;;19.42;69.63
45285;BME280;31026;43.780;25.948;2022-11-14T12:03:52;101954.13;;;19.39;69.67
45285;BME280;31026;43.780;25.948;2022-11-14T12:06:21;101964.84;;;19.39;69.94
45285;BME280;31026;43.780;25.948;2022-11-14T12:08:59;101974.94;;;19.36;69.65
45285;BME280;31026;43.780;25.948;2022-11-14T12:11:29;101962.50;;;19.35;70.04
45285;BME280;31026;43.780;25.948;2022-11-14T12:19:43;101964.09;;;19.37;70.12
45285;BME280;31026;43.780;25.948;2022-11-14T12:22:21;101971.41;;;19.35;70.08
45285;BME280;31026;43.780;25.948;2022-11-14T12:27:44;101956.50;;;19.31;70.32
45285;BME280;31026;43.780;25.948;2022-11-14T12:30:17;101963.34;;;19.35;69.88
45285;BME280;31026;43.780;25.948;2022-11-14T12:32:47;101963.78;;;19.29;70.21
45285;BME280;31026;43.780;25.948;2022-11-14T12:35:18;101963.78;;;19.29;70.37
45285;BME280;31026;43.780;25.948;2022-11-14T12:37:48;101962.09;;;19.28;70.29
45285;BME280;31026;43.780;25.948;2022-11-14T12:40:24;101954.16;;;19.26;70.11
45285;BME280;31026;43.780;25.948;2022-11-14T12:42:56;101959.41;;;19.28;70.33
45285;BME280;31026;43.780;25.948;2022-11-14T12:48:14;101962.53;;;19.22;70.25
45285;BME280;31026;43.780;25.948;2022-11-14T12:50:43;101962.72;;;19.19;70.08
45285;BME280;31026;43.780;25.948;2022-11-14T12:58:56;101959.06;;;19.20;70.22
45285;BME280;31026;43.780;25.948;2022-11-14T13:01:32;101942.34;;;19.16;70.38
45285;BME280;31026;43.780;25.948;2022-11-14T13:04:08;101946.00;;;19.15;70.68
45285;BME280;31026;43.780;25.948;2022-11-14T13:06:44;101945.13;;;19.15;70.43
45285;BME280;31026;43.780;25.948;2022-11-14T13:09:19;101956.38;;;19.20;70.16
45285;BME280;31026;43.780;25.948;2022-11-14T13:11:52;101957.56;;;19.16;70.53
45285;BME280;31026;43.780;25.948;2022-11-14T13:17:43;101945.34;;;19.12;70.40
45285;BME280;31026;43.780;25.948;2022-11-14T13:20:25;101935.91;;;19.19;70.28
45285;BME280;31026;43.780;25.948;2022-11-14T13:23:15;101946.84;;;19.16;70.39
45285;BME280;31026;43.780;25.948;2022-11-14T13:28:53;101947.28;;;19.10;70.12
45285;BME280;31026;43.780;25.948;2022-11-14T13:31:22;101935.94;;;19.06;70.28
45285;BME280;31026;43.780;25.948;2022-11-14T13:33:53;101952.63;;;19.10;70.61
45285;BME280;31026;43.780;25.948;2022-11-14T13:36:25;101941.06;;;19.09;70.52
45285;BME280;31026;43.780;25.948;2022-11-14T13:39:03;101938.38;;;19.09;70.45
45285;BME280;31026;43.780;25.948;2022-11-14T13:44:26;101945.66;;;19.07;70.39
45285;BME280;31026;43.780;25.948;2022-11-14T13:47:04;101947.69;;;19.03;70.63
45285;BME280;31026;43.780;25.948;2022-11-14T13:49:42;101929.03;;;19.02;70.49
45285;BME280;31026;43.780;25.948;2022-11-14T13:52:16;101941.16;;;19.07;70.28
45285;BME280;31026;43.780;25.948;2022-11-14T13:54:45;101941.38;;;19.04;70.43
45285;BME280;31026;43.780;25.948;2022-11-14T13:57:17;101928.09;;;19.03;70.53
45285;BME280;31026;43.780;25.948;2022-11-14T13:59:58;101926.59;;;18.99;70.32
45285;BME280;31026;43.780;25.948;2022-11-14T14:02:45;101930.03;;;19.01;70.43
45285;BME280;31026;43.780;25.948;2022-11-14T14:05:28;101943.22;;;19.04;70.79
45285;BME280;31026;43.780;25.948;2022-11-14T14:08:12;101924.56;;;19.02;70.61
45285;BME280;31026;43.780;25.948;2022-11-14T14:10:42;101931.84;;;19.00;70.12
45285;BME280;31026;43.780;25.948;2022-11-14T14:13:19;101914.88;;;19.00;70.26
45285;BME280;31026;43.780;25.948;2022-11-14T14:15:55;101930.34;;;18.96;70.52
45285;BME280;31026;43.780;25.948;2022-11-14T14:18:30;101922.81;;;19.01;70.35
45285;BME280;31026;43.780;25.948;2022-11-14T14:21:09;101920.16;;;19.01;70.63
45285;BME280;31026;43.780;25.948;2022-11-14T14:23:40;101908.66;;;18.99;70.37
45285;BME280;31026;43.780;25.948;2022-11-14T14:26:15;101915.13;;;18.97;70.23
45285;BME280;31026;43.780;25.948;2022-11-14T14:28:46;101920.47;;;18.97;70.65
45285;BME280;31026;43.780;25.948;2022-11-14T14:31:17;101909.00;;;18.95;70.85
45285;BME280;31026;43.780;25.948;2022-11-14T14:33:47;101907.16;;;18.95;70.64
45285;BME280;31026;43.780;25.948;2022-11-14T14:36:20;101924.00;;;18.97;70.81
45285;BME280;31026;43.780;25.948;2022-11-14T14:38:50;101919.19;;;19.02;70.62